Time;durP1;ratioP1;P1;durP2;ratioP2;P2;SDS_P1;SDS_P2;PMS_P1;PMS_P2;Temp;Humidity;BMP_temperature;BMP_pressure;BME280_temperature;BME280_humidity;BME280_pressure;Samples;Min_cycle;Max_cycle;Signal;HPM_P1;HPM_P2
2022/01/09 00:00:53;;;;;;;4.40;3.47;;;1.60;99.90;;;2.16;100.00;-19800.50;5013762;28;20314;-58
2022/01/09 00:03:22;;;;;;;4.47;3.63;;;1.60;99.90;;;2.24;100.00;-19803.06;5013968;28;20234;-58
2022/01/09 00:05:50;;;;;;;4.80;3.10;;;1.60;99.90;;;2.34;100.00;-19806.66;5013749;28;20321;-59
2022/01/09 00:08:18;;;;;;;5.00;3.50;;;1.60;99.90;;;2.15;100.00;-19800.00;5013720;28;20273;-60
2022/01/09 00:10:47;;;;;;;5.97;3.50;;;1.60;99.90;;;2.21;100.00;-19802.06;5012559;28;20574;-60
2022/01/09 00:13:15;;;;;;;5.40;3.10;;;1.60;99.90;;;2.37;100.00;-19807.69;5013660;28;20283;-60
2022/01/09 00:15:44;;;;;;;3.40;2.87;;;1.60;99.90;;;2.53;100.00;-19812.81;5014025;28;20254;-60
2022/01/09 00:18:12;;;;;;;4.80;3.10;;;1.80;99.90;;;2.58;100.00;-19814.53;5013680;28;20230;-60
2022/01/09 00:20:42;;;;;;;3.60;2.90;;;1.80;99.90;;;2.91;100.00;-19825.81;5013399;28;20261;-59
2022/01/09 00:23:12;;;;;;;5.37;3.20;;;1.90;99.90;;;2.87;100.00;-19824.63;5013225;28;20647;-60
2022/01/09 00:25:40;;;;;;;3.20;2.90;;;2.00;99.90;;;2.72;100.00;-19819.31;5012866;28;20318;-60
2022/01/09 00:28:08;;;;;;;4.63;2.70;;;2.00;99.90;;;3.05;100.00;-19830.78;5013283;28;20295;-60
2022/01/09 00:30:37;;;;;;;3.90;2.90;;;2.10;99.90;;;2.97;100.00;-19828.03;5012956;28;20313;-59
2022/01/09 00:33:06;;;;;;;5.13;2.67;;;2.20;99.90;;;2.91;100.00;-19825.97;5013683;28;20314;-59
2022/01/09 00:35:35;;;;;;;3.33;2.47;;;2.20;99.90;;;3.16;100.00;-19834.53;5013595;28;20239;-60
2022/01/09 00:38:05;;;;;;;3.57;2.40;;;2.20;99.90;;;3.13;100.00;-19833.34;5013492;28;20253;-58
2022/01/09 00:40:33;;;;;;;2.43;2.20;;;2.30;99.90;;;2.94;100.00;-19827.00;5013493;28;20203;-59
2022/01/09 00:43:01;;;;;;;5.30;2.30;;;2.30;99.90;;;3.19;100.00;-19835.38;5013364;28;20631;-59
2022/01/09 00:45:29;;;;;;;2.60;2.23;;;2.30;99.90;;;3.17;100.00;-19834.88;5013206;28;20326;-60
2022/01/09 00:47:57;;;;;;;4.43;2.10;;;2.40;99.90;;;3.38;100.00;-19842.06;5013236;28;20258;-59
2022/01/09 00:50:25;;;;;;;2.97;2.17;;;2.50;99.90;;;3.52;100.00;-19846.66;5013334;28;20309;-59
2022/01/09 00:52:53;;;;;;;3.13;2.27;;;2.60;99.90;;;3.41;99.88;-19843.09;5013093;28;20251;-60
2022/01/09 00:55:22;;;;;;;3.80;2.03;;;2.70;99.90;;;3.51;100.00;-19846.31;5012957;28;20263;-59
2022/01/09 00:57:50;;;;;;;2.80;1.90;;;2.70;99.90;;;3.44;99.74;-19844.09;5012634;28;20399;-60
2022/01/09 01:00:18;;;;;;;3.00;2.20;;;2.70;99.90;;;3.42;100.00;-19843.25;5012760;28;20224;-60
2022/01/09 01:02:46;;;;;;;2.60;2.20;;;2.70;99.90;;;3.49;100.00;-19845.63;5012758;28;20746;-63
2022/01/09 01:05:15;;;;;;;3.87;2.40;;;2.70;99.90;;;3.43;100.00;-19843.75;5012933;28;20231;-60
2022/01/09 01:07:43;;;;;;;2.57;2.00;;;2.70;99.90;;;3.36;100.00;-19841.19;5001408;28;20286;-60
2022/01/09 01:10:13;;;;;;;2.07;1.90;;;2.70;99.90;;;3.55;100.00;-19847.88;5013371;28;20207;-59
2022/01/09 01:12:43;;;;;;;4.10;2.27;;;2.70;99.90;;;3.49;100.00;-19845.81;5012307;28;20553;-59
2022/01/09 01:15:12;;;;;;;2.97;2.03;;;2.70;99.90;;;3.51;100.00;-19846.31;5012885;28;20234;-60
2022/01/09 01:17:40;;;;;;;3.87;2.20;;;2.70;99.90;;;3.39;100.00;-19842.41;5012832;28;20233;-59
2022/01/09 01:20:10;;;;;;;2.77;2.00;;;2.70;99.90;;;3.37;100.00;-19841.53;5012705;28;20285;-59
2022/01/09 01:22:39;;;;;;;2.83;2.00;;;2.60;99.90;;;3.53;100.00;-19847.19;5012793;28;20215;-59
2022/01/09 01:25:10;;;;;;;2.13;1.80;;;2.70;99.90;;;3.44;100.00;-19843.94;5012977;28;20686;-60
2022/01/09 01:27:38;;;;;;;2.47;2.00;;;2.70;99.90;;;3.44;100.00;-19844.09;5012065;28;20302;-59
2022/01/09 01:30:10;;;;;;;4.77;1.93;;;2.70;99.90;;;3.40;100.00;-19842.56;5012487;28;20283;-60
2022/01/09 01:32:39;;;;;;;4.03;2.13;;;2.70;99.90;;;3.39;100.00;-19842.41;5012382;28;20806;-59
2022/01/09 01:35:10;;;;;;;2.93;2.00;;;2.70;99.90;;;3.50;100.00;-19846.16;5012367;28;20226;-59
2022/01/09 01:37:41;;;;;;;3.20;2.03;;;2.70;99.90;;;3.48;100.00;-19845.31;5012198;28;20282;-59
2022/01/09 01:40:13;;;;;;;2.93;2.03;;;2.70;99.90;;;3.36;100.00;-19841.38;5012872;28;20238;-58
2022/01/09 01:42:42;;;;;;;2.47;1.87;;;2.70;99.90;;;3.42;100.00;-19843.41;5011827;28;20259;-59
2022/01/09 01:45:13;;;;;;;2.93;1.90;;;2.70;99.90;;;3.43;100.00;-19843.75;5012406;28;20242;-58
2022/01/09 01:47:42;;;;;;;3.97;2.10;;;2.60;99.90;;;3.41;100.00;-19843.09;5012128;28;20318;-59
2022/01/09 01:50:13;;;;;;;2.77;1.70;;;2.70;99.90;;;3.27;100.00;-19838.13;5012149;28;20230;-58
2022/01/09 01:52:47;;;;;;;4.80;2.10;;;2.60;99.90;;;3.32;100.00;-19839.81;5012381;28;20187;-58
2022/01/09 01:55:17;;;;;;;2.87;2.00;;;2.50;99.90;;;3.25;100.00;-19837.59;5012624;28;20317;-60
2022/01/09 01:57:46;;;;;;;2.30;1.70;;;2.50;99.90;;;3.09;100.00;-19832.13;5011507;28;20227;-59
2022/01/09 02:00:20;;;;;;;2.97;2.17;;;2.40;99.90;;;3.03;100.00;-19829.91;5011787;28;20307;-58
2022/01/09 02:02:48;;;;;;;2.27;2.07;;;2.40;99.90;;;2.90;100.00;-19825.63;5011874;28;20774;-59
2022/01/09 02:05:16;;;;;;;2.53;2.20;;;2.30;99.90;;;2.86;100.00;-19824.09;5012003;28;20238;-59
2022/01/09 02:07:46;;;;;;;2.37;2.00;;;2.30;99.90;;;2.76;100.00;-19820.69;4999881;28;20281;-59
2022/01/09 02:10:14;;;;;;;2.27;2.07;;;2.20;99.90;;;2.87;100.00;-19824.63;5012529;28;20301;-59
2022/01/09 02:12:42;;;;;;;2.83;2.40;;;2.20;99.90;;;2.78;100.00;-19821.53;5011314;28;20230;-59
2022/01/09 02:15:34;;;;;;;3.63;2.10;;;2.10;99.90;;;2.66;100.00;-19817.44;5011628;28;20306;-59
2022/01/09 02:18:05;;;;;;;2.90;1.93;;;2.10;99.90;;;2.93;100.00;-19826.50;5011886;28;20280;-59
2022/01/09 02:20:36;;;;;;;2.50;2.00;;;2.10;99.90;;;2.68;100.00;-19817.94;5011971;28;20330;-59
2022/01/09 02:23:07;;;;;;;2.90;2.00;;;2.10;99.90;;;2.65;100.00;-19817.09;5011446;28;20246;-59
2022/01/09 02:25:36;;;;;;;4.60;2.23;;;2.00;99.90;;;2.68;100.00;-19817.94;5011823;28;20553;-58
2022/01/09 02:28:06;;;;;;;2.57;1.80;;;2.00;99.90;;;2.78;100.00;-19821.38;5012025;28;20627;-57
2022/01/09 02:30:34;;;;;;;2.30;2.10;;;2.00;99.90;;;2.78;100.00;-19821.38;5011616;28;20229;-59
2022/01/09 02:33:06;;;;;;;2.90;2.00;;;2.00;99.90;;;2.69;100.00;-19818.47;5011954;28;20226;-59
2022/01/09 02:35:37;;;;;;;2.30;2.10;;;2.00;99.90;;;2.61;100.00;-19815.72;5011805;28;20223;-59
2022/01/09 02:38:07;;;;;;;2.90;2.20;;;2.00;99.90;;;2.50;100.00;-19812.13;5011628;28;20365;-59
2022/01/09 02:40:35;;;;;;;3.00;1.90;;;2.00;99.90;;;2.42;100.00;-19809.22;5011907;28;20207;-59
2022/01/09 02:43:04;;;;;;;2.60;1.87;;;2.00;99.90;;;2.66;100.00;-19817.25;5011693;28;20222;-59
2022/01/09 02:45:33;;;;;;;2.60;2.03;;;2.00;99.90;;;2.69;100.00;-19818.47;5011412;28;20552;-59
2022/01/09 02:48:02;;;;;;;2.93;2.17;;;2.00;99.90;;;2.73;100.00;-19819.81;5011619;28;20241;-57
2022/01/09 02:50:35;;;;;;;3.27;2.23;;;2.00;99.90;;;2.80;100.00;-19822.22;5011601;28;20314;-59
2022/01/09 02:53:15;;;;;;;2.53;1.90;;;2.10;99.90;;;2.98;100.00;-19828.19;5011484;28;20228;-58
2022/01/09 02:55:44;;;;;;;1.90;1.73;;;2.20;99.90;;;2.99;100.00;-19828.72;5010477;28;20239;-58
2022/01/09 02:58:13;;;;;;;3.43;2.00;;;2.20;99.90;;;2.78;100.00;-19821.53;5010747;28;20270;-58
2022/01/09 03:00:45;;;;;;;3.77;2.23;;;2.10;99.90;;;2.70;100.00;-19818.63;5011534;28;20223;-59
2022/01/09 03:03:14;;;;;;;2.70;2.10;;;2.10;99.90;;;2.54;100.00;-19813.34;5011858;28;20603;-59
2022/01/09 03:05:43;;;;;;;2.50;2.10;;;2.10;99.90;;;2.95;100.00;-19827.34;5011390;28;20230;-59
2022/01/09 03:08:13;;;;;;;3.50;2.17;;;2.10;99.90;;;2.86;100.00;-19824.09;5011464;28;20244;-59
2022/01/09 03:10:41;;;;;;;2.83;2.00;;;2.10;99.90;;;2.76;100.00;-19820.84;5011517;28;20214;-59
2022/01/09 03:13:09;;;;;;;3.77;2.63;;;2.10;99.90;;;2.72;100.00;-19819.50;4992001;28;20204;-59
2022/01/09 03:15:37;;;;;;;3.23;2.10;;;2.10;99.90;;;2.81;100.00;-19822.41;4991473;28;20227;-59
2022/01/09 03:18:05;;;;;;;2.97;2.00;;;2.10;99.90;;;2.73;100.00;-19819.81;4992056;28;20310;-58
2022/01/09 03:20:34;;;;;;;2.40;2.20;;;2.10;99.90;;;2.75;100.00;-19820.50;4995167;28;20654;-59
2022/01/09 03:23:01;;;;;;;3.20;2.30;;;2.10;99.90;;;2.89;100.00;-19825.13;4995564;28;20275;-57
2022/01/09 03:25:31;;;;;;;2.40;2.20;;;2.10;99.90;;;2.87;100.00;-19824.44;4995510;28;20240;-58
2022/01/09 03:28:00;;;;;;;3.47;2.50;;;2.20;99.90;;;2.93;100.00;-19826.50;4995119;28;20247;-58
2022/01/09 03:30:28;;;;;;;2.43;2.23;;;2.20;99.90;;;2.98;100.00;-19828.38;4994801;28;20323;-59
2022/01/09 03:32:56;;;;;;;5.57;2.13;;;2.20;99.90;;;2.90;100.00;-19825.47;4995106;28;20306;-58
2022/01/09 03:35:27;;;;;;;2.60;2.20;;;2.30;99.90;;;2.99;100.00;-19828.53;4994159;28;20705;-57
2022/01/09 03:37:56;;;;;;;3.57;2.57;;;2.30;99.90;;;3.06;100.00;-19830.94;4994672;28;20568;-58
2022/01/09 03:40:28;;;;;;;3.27;2.40;;;2.30;99.90;;;2.90;100.00;-19825.63;4995043;28;20246;-59
2022/01/09 03:42:58;;;;;;;6.00;2.70;;;2.30;99.90;;;3.05;100.00;-19830.78;5014617;28;20812;-58
2022/01/09 03:45:27;;;;;;;3.30;2.40;;;2.30;99.90;;;2.97;100.00;-19827.88;5014358;28;20227;-58
2022/01/09 03:47:57;;;;;;;3.37;2.20;;;2.30;99.90;;;2.92;100.00;-19826.31;5014486;28;20259;-59
2022/01/09 03:50:26;;;;;;;2.80;2.60;;;2.30;99.90;;;2.74;100.00;-19820.16;5014372;28;20583;-57
2022/01/09 03:52:54;;;;;;;3.53;2.70;;;2.30;99.90;;;2.72;100.00;-19819.31;5013901;28;20765;-57
2022/01/09 03:55:24;;;;;;;2.93;2.27;;;2.20;99.90;;;2.95;100.00;-19827.19;5014276;28;20274;-58
2022/01/09 03:57:52;;;;;;;3.40;2.53;;;2.30;99.90;;;3.13;100.00;-19833.34;5014024;28;20227;-59
2022/01/09 04:00:24;;;;;;;3.87;2.67;;;2.30;99.90;;;3.11;100.00;-19832.81;5014136;28;20305;-59
2022/01/09 04:02:54;;;;;;;2.93;2.63;;;2.40;99.90;;;3.34;100.00;-19840.69;5014361;28;20304;-58
2022/01/09 04:05:23;;;;;;;2.53;2.33;;;2.50;99.90;;;3.38;100.00;-19842.06;5014271;28;20227;-57
2022/01/09 04:07:52;;;;;;;2.67;2.47;;;2.50;99.90;;;3.43;100.00;-19843.75;5014192;28;20399;-58
2022/01/09 04:10:41;;;;;;;3.33;2.33;;;2.60;99.90;;;3.38;100.00;-19842.06;5013501;28;20192;-59
2022/01/09 04:13:12;;;;;;;2.83;2.30;;;2.60;99.90;;;3.39;100.00;-19842.41;5014663;28;20193;-59
2022/01/09 04:15:46;;;;;;;2.90;2.40;;;2.60;99.90;;;3.49;100.00;-19845.63;5013633;28;20234;-59
2022/01/09 04:18:16;;;;;;;3.43;2.20;;;2.70;99.90;;;3.46;100.00;-19844.63;5012833;28;20873;-59
2022/01/09 04:20:44;;;;;;;3.57;2.30;;;2.70;99.90;;;3.48;100.00;-19845.47;5013615;28;20320;-59
2022/01/09 04:23:13;;;;;;;3.43;2.60;;;2.70;99.90;;;3.53;100.00;-19847.00;5013696;28;20232;-62
2022/01/09 04:25:41;;;;;;;2.90;2.40;;;2.70;99.90;;;3.45;100.00;-19844.28;5013375;28;20210;-57
2022/01/09 04:28:09;;;;;;;3.20;2.43;;;2.70;99.90;;;3.29;100.00;-19838.81;5014306;28;20311;-58
2022/01/09 04:30:37;;;;;;;2.70;2.47;;;2.70;99.90;;;3.34;100.00;-19840.69;5012814;28;20310;-58
2022/01/09 04:33:08;;;;;;;2.77;2.57;;;2.70;99.90;;;3.36;100.00;-19841.38;5013844;28;20234;-60
2022/01/09 04:35:38;;;;;;;2.50;2.20;;;2.70;99.90;;;3.50;100.00;-19846.00;5014092;28;20230;-60
2022/01/09 04:38:07;;;;;;;4.17;2.43;;;2.70;99.90;;;3.53;100.00;-19847.19;5013742;28;20435;-59
2022/01/09 04:40:35;;;;;;;3.50;2.30;;;2.80;99.90;;;3.43;100.00;-19843.59;5013245;28;20210;-61
2022/01/09 04:43:07;;;;;;;3.20;2.53;;;2.70;99.90;;;3.47;100.00;-19844.97;5014255;28;20293;-59
2022/01/09 04:45:35;;;;;;;2.93;2.30;;;2.70;99.90;;;3.35;100.00;-19840.84;5013371;28;20322;-59
2022/01/09 04:48:07;;;;;;;2.73;2.47;;;2.70;99.90;;;3.27;100.00;-19838.28;5012861;28;20631;-59
2022/01/09 04:50:38;;;;;;;3.13;2.47;;;2.70;99.90;;;3.40;100.00;-19842.56;4993033;28;20724;-59
2022/01/09 04:53:09;;;;;;;2.73;2.53;;;2.70;99.90;;;3.52;100.00;-19846.66;5003695;28;20222;-59
2022/01/09 04:55:40;;;;;;;2.57;2.20;;;2.80;99.90;;;3.38;100.00;-19841.88;5012760;28;20262;-59
2022/01/09 04:58:09;;;;;;;2.70;2.50;;;2.80;99.90;;;3.52;100.00;-19846.66;5013613;28;20199;-58
2022/01/09 05:00:39;;;;;;;2.60;2.40;;;2.80;99.90;;;3.49;100.00;-19845.81;5013112;28;20227;-57
2022/01/09 05:03:08;;;;;;;3.47;2.40;;;2.80;99.90;;;3.66;100.00;-19851.63;5013195;28;20231;-58
2022/01/09 05:05:39;;;;;;;2.53;2.33;;;2.80;99.90;;;3.55;100.00;-19847.88;5013240;28;20223;-58
2022/01/09 05:08:07;;;;;;;2.63;2.43;;;2.90;99.90;;;3.49;100.00;-19845.63;5012688;28;20308;-60
2022/01/09 05:10:35;;;;;;;3.00;2.60;;;2.90;99.90;;;3.68;100.00;-19852.31;5012554;28;20297;-57
2022/01/09 05:13:03;;;;;;;3.10;2.43;;;2.90;99.90;;;3.54;100.00;-19847.53;5013190;28;20214;-58
2022/01/09 05:15:31;;;;;;;2.50;2.30;;;2.90;99.90;;;3.60;100.00;-19849.41;5012685;28;20761;-58
2022/01/09 05:18:03;;;;;;;4.23;2.20;;;2.90;99.90;;;3.59;100.00;-19849.06;5012488;28;20319;-58
2022/01/09 05:20:31;;;;;;;4.03;2.60;;;2.90;99.90;;;3.56;100.00;-19848.03;5012589;28;20725;-60
2022/01/09 05:23:01;;;;;;;3.17;2.67;;;2.90;99.90;;;3.64;100.00;-19850.94;5012660;28;20247;-59
2022/01/09 05:25:29;;;;;;;2.40;2.20;;;2.90;99.90;;;3.66;100.00;-19851.44;5012530;28;20601;-58
2022/01/09 05:27:57;;;;;;;4.50;2.60;;;2.90;99.90;;;3.73;100.00;-19853.84;5012584;28;20307;-59
2022/01/09 05:30:25;;;;;;;2.83;2.40;;;3.00;99.90;;;3.88;100.00;-19858.97;5012455;28;20255;-59
2022/01/09 05:32:53;;;;;;;3.53;2.40;;;3.10;99.90;;;3.81;100.00;-19856.59;5012311;28;20236;-59
2022/01/09 05:35:22;;;;;;;2.83;2.30;;;3.10;99.90;;;3.93;100.00;-19860.50;5012422;28;20227;-57
2022/01/09 05:37:50;;;;;;;3.90;2.33;;;3.10;99.90;;;4.08;100.00;-19865.63;5012302;28;20277;-58
2022/01/09 05:40:20;;;;;;;3.27;2.30;;;3.20;99.90;;;4.12;100.00;-19867.00;5012370;28;20317;-58
2022/01/09 05:42:48;;;;;;;2.83;1.70;;;3.30;99.90;;;4.07;100.00;-19865.47;5012003;28;20343;-59
2022/01/09 05:45:18;;;;;;;3.33;2.30;;;3.30;99.90;;;4.07;100.00;-19865.47;5012095;28;20229;-58
2022/01/09 05:47:46;;;;;;;2.10;1.90;;;3.30;99.90;;;4.17;100.00;-19868.88;5012057;28;20320;-58
2022/01/09 05:50:15;;;;;;;2.43;1.67;;;3.40;99.90;;;4.11;100.00;-19866.84;5011932;28;20321;-59
2022/01/09 05:52:43;;;;;;;3.90;2.17;;;3.40;99.90;;;4.09;100.00;-19866.16;5012214;28;20292;-59
2022/01/09 05:55:11;;;;;;;2.73;1.80;;;3.40;99.90;;;4.25;100.00;-19871.63;5011964;28;20317;-58
2022/01/09 05:57:41;;;;;;;1.67;1.57;;;3.40;99.90;;;4.12;100.00;-19867.19;5010633;28;20311;-59
2022/01/09 06:00:10;;;;;;;1.83;1.60;;;3.40;99.90;;;4.35;100.00;-19874.88;5011585;28;20793;-59
2022/01/09 06:02:38;;;;;;;2.10;1.67;;;3.50;99.90;;;4.47;100.00;-19879.16;5011794;28;20301;-58
2022/01/09 06:05:08;;;;;;;2.90;1.87;;;3.50;99.90;;;4.34;100.00;-19874.69;5011743;28;20227;-59
2022/01/09 06:07:40;;;;;;;2.03;1.70;;;3.50;99.90;;;4.17;100.00;-19868.72;5011382;28;20550;-59
2022/01/09 06:10:11;;;;;;;2.40;1.90;;;3.50;99.90;;;4.13;100.00;-19867.53;5012123;28;20221;-59
2022/01/09 06:12:41;;;;;;;2.97;1.53;;;3.50;99.90;;;4.29;100.00;-19872.81;5011480;28;20307;-60
2022/01/09 06:15:10;;;;;;;2.77;1.57;;;3.50;99.90;;;4.30;100.00;-19873.16;5011477;28;20323;-58
2022/01/09 06:17:39;;;;;;;1.57;1.47;;;3.50;99.90;;;4.26;100.00;-19871.78;5011702;28;20308;-58
2022/01/09 06:20:11;;;;;;;1.40;1.20;;;3.50;99.90;;;4.33;100.00;-19874.19;5012022;28;20219;-61
2022/01/09 06:22:40;;;;;;;1.20;1.10;;;3.50;99.90;;;4.43;100.00;-19877.59;5011793;28;20262;-59
2022/01/09 06:25:10;;;;;;;1.47;1.10;;;3.50;99.90;;;4.51;100.00;-19880.34;5012287;28;20206;-59
2022/01/09 06:27:39;;;;;;;1.70;1.00;;;3.60;99.90;;;4.42;100.00;-19877.25;5011203;28;20442;-60
2022/01/09 06:30:11;;;;;;;1.40;1.30;;;3.60;99.90;;;4.49;100.00;-19879.66;5011714;28;20315;-58
2022/01/09 06:32:39;;;;;;;1.40;1.13;;;3.70;99.90;;;4.46;100.00;-19878.81;5011580;28;20233;-59
2022/01/09 06:35:09;;;;;;;1.37;1.27;;;3.70;99.90;;;4.20;100.00;-19869.75;5011839;28;20248;-59
2022/01/09 06:37:37;;;;;;;1.00;0.90;;;3.60;99.90;;;4.47;100.00;-19878.97;5010815;28;20806;-58
2022/01/09 06:40:07;;;;;;;1.20;1.10;;;3.60;99.90;;;4.46;100.00;-19878.81;5011249;28;20206;-59
2022/01/09 06:42:35;;;;;;;1.13;1.00;;;3.70;99.90;;;4.32;100.00;-19874.03;5010472;28;20229;-59
2022/01/09 06:45:05;;;;;;;1.67;1.00;;;3.60;99.90;;;4.32;100.00;-19873.84;5010458;28;20752;-59
2022/01/09 06:47:34;;;;;;;1.20;0.80;;;3.70;99.90;;;4.44;100.00;-19877.94;5010614;28;20301;-57
2022/01/09 06:50:02;;;;;;;1.47;0.90;;;3.70;99.90;;;4.60;100.00;-19883.41;5011639;28;20235;-58
2022/01/09 06:52:30;;;;;;;0.83;0.80;;;3.70;99.90;;;4.55;100.00;-19881.88;5011576;28;20259;-60
2022/01/09 06:54:58;;;;;;;1.60;1.00;;;3.70;99.90;;;4.52;100.00;-19880.84;5014999;28;20423;-58
2022/01/09 06:57:26;;;;;;;1.30;0.90;;;3.80;99.90;;;4.54;100.00;-19881.38;5015125;28;20348;-59
2022/01/09 06:59:54;;;;;;;1.00;0.90;;;3.80;99.90;;;4.52;100.00;-19880.84;5015137;28;20318;-60
2022/01/09 07:02:23;;;;;;;0.90;0.80;;;3.80;99.90;;;4.37;100.00;-19875.56;5015352;28;20224;-57
2022/01/09 07:04:52;;;;;;;0.90;0.80;;;3.70;99.90;;;4.31;100.00;-19873.66;5015108;28;20251;-58
2022/01/09 07:07:20;;;;;;;1.97;1.13;;;3.70;99.90;;;4.45;100.00;-19878.28;5015546;28;20566;-58
2022/01/09 07:09:48;;;;;;;1.40;0.90;;;3.70;99.90;;;4.38;100.00;-19876.06;5014682;28;20269;-59
2022/01/09 07:12:16;;;;;;;2.30;1.40;;;3.70;99.90;;;4.31;100.00;-19873.66;5014762;28;20230;-58
2022/01/09 07:14:44;;;;;;;0.77;0.77;;;3.70;99.90;;;4.46;100.00;-19878.81;5014748;28;20253;-59
2022/01/09 07:17:13;;;;;;;0.80;0.80;;;3.70;99.90;;;4.36;100.00;-19875.22;5014898;28;20233;-58
2022/01/09 07:19:41;;;;;;;1.63;0.90;;;3.60;99.90;;;4.27;100.00;-19872.31;5009338;28;20206;-59
2022/01/09 07:22:10;;;;;;;1.17;1.00;;;3.60;99.90;;;4.51;100.00;-19880.50;5015843;28;20236;-59
2022/01/09 07:24:38;;;;;;;1.17;0.80;;;3.70;99.90;;;4.26;100.00;-19871.97;5014873;28;20655;-59
2022/01/09 07:27:07;;;;;;;0.87;0.80;;;3.60;99.90;;;4.32;100.00;-19874.03;5014887;28;20312;-59
2022/01/09 07:29:36;;;;;;;1.27;1.00;;;3.60;99.90;;;4.28;100.00;-19872.47;5014898;28;20666;-59
2022/01/09 07:32:05;;;;;;;1.17;1.07;;;3.60;99.90;;;4.19;100.00;-19869.41;5014958;28;20248;-59
2022/01/09 07:34:33;;;;;;;1.00;1.00;;;3.60;99.90;;;4.41;100.00;-19876.94;5014104;28;20214;-59
2022/01/09 07:37:00;;;;;;;1.03;0.80;;;3.60;99.90;;;4.19;100.00;-19869.56;5015186;28;20541;-58
2022/01/09 07:39:30;;;;;;;0.73;0.73;;;3.60;99.90;;;4.38;100.00;-19876.06;5014309;28;20611;-57
2022/01/09 07:41:59;;;;;;;1.23;0.80;;;3.60;99.90;;;4.38;100.00;-19876.06;5014013;28;20225;-60
2022/01/09 07:44:28;;;;;;;1.90;1.00;;;3.60;99.90;;;4.64;100.00;-19884.78;5014191;28;20233;-60
2022/01/09 07:46:56;;;;;;;1.27;1.17;;;3.70;99.90;;;4.55;100.00;-19881.88;5014487;28;20246;-60
2022/01/09 07:49:24;;;;;;;1.27;1.00;;;3.70;99.90;;;4.59;100.00;-19883.06;5014503;28;20225;-60
2022/01/09 07:51:52;;;;;;;0.83;0.80;;;3.70;99.90;;;4.46;100.00;-19878.63;5014236;28;20641;-57
2022/01/09 07:54:20;;;;;;;1.20;0.80;;;3.80;99.90;;;4.62;100.00;-19884.09;5013900;28;21064;-59
2022/01/09 07:56:50;;;;;;;0.80;0.80;;;3.80;99.90;;;4.57;100.00;-19882.56;5013966;28;20336;-57
2022/01/09 07:59:18;;;;;;;1.00;0.90;;;3.80;99.90;;;4.69;100.00;-19886.50;5013838;28;20312;-60
2022/01/09 08:01:49;;;;;;;1.10;1.00;;;3.90;99.90;;;4.77;100.00;-19889.41;5014246;28;20190;-58
2022/01/09 08:04:18;;;;;;;1.10;0.80;;;3.90;99.90;;;4.69;100.00;-19886.66;5013819;28;20288;-59
2022/01/09 08:06:47;;;;;;;0.83;0.70;;;3.90;99.90;;;4.87;100.00;-19892.66;5013114;28;20229;-59
2022/01/09 08:09:15;;;;;;;0.73;0.70;;;4.00;99.90;;;4.83;100.00;-19891.28;5013806;28;20726;-59
2022/01/09 08:11:43;;;;;;;1.00;0.70;;;4.00;99.90;;;5.06;100.00;-19898.97;5013589;28;20639;-57
2022/01/09 08:14:12;;;;;;;0.73;0.70;;;4.10;99.90;;;4.95;100.00;-19895.56;5013681;28;20254;-58
2022/01/09 08:16:40;;;;;;;0.90;0.80;;;4.10;99.90;;;4.99;100.00;-19896.75;5013942;28;20221;-58
2022/01/09 08:19:08;;;;;;;0.80;0.80;;;4.20;99.90;;;4.95;100.00;-19895.56;5013678;28;20256;-58
2022/01/09 08:21:36;;;;;;;0.80;0.70;;;4.20;99.90;;;4.94;100.00;-19895.22;5013590;28;20243;-59
2022/01/09 08:24:05;;;;;;;0.73;0.73;;;4.10;99.90;;;5.05;100.00;-19898.63;4994995;28;20230;-59
2022/01/09 08:26:33;;;;;;;0.80;0.80;;;4.20;99.90;;;4.99;100.00;-19896.91;4993938;28;20310;-58
2022/01/09 08:29:01;;;;;;;0.57;0.57;;;4.20;99.90;;;5.11;100.00;-19900.84;4993836;28;20761;-58
2022/01/09 08:31:31;;;;;;;0.80;0.80;;;4.30;99.90;;;5.23;100.00;-19904.94;5010900;28;20585;-59
2022/01/09 08:33:59;;;;;;;0.80;0.80;;;4.40;99.90;;;5.25;100.00;-19905.63;5012678;28;20213;-59
2022/01/09 08:36:32;;;;;;;0.80;0.80;;;4.40;99.90;;;5.58;100.00;-19916.75;5012785;28;20246;-59
2022/01/09 08:39:00;;;;;;;0.80;0.80;;;4.50;99.90;;;5.60;100.00;-19917.44;5013302;28;20692;-58
2022/01/09 08:41:28;;;;;;;1.10;1.00;;;4.60;99.90;;;5.44;100.00;-19911.97;5012995;28;20651;-57
2022/01/09 08:43:56;;;;;;;1.23;1.00;;;4.50;99.90;;;5.74;100.00;-19922.38;5012989;28;20309;-59
2022/01/09 08:46:24;;;;;;;1.53;0.80;;;4.70;99.90;;;5.50;100.00;-19914.00;5013872;28;20289;-60
2022/01/09 08:48:54;;;;;;;1.20;1.10;;;4.60;99.90;;;5.59;100.00;-19917.09;5012965;28;20244;-58
2022/01/09 08:51:22;;;;;;;1.50;1.10;;;4.60;99.90;;;5.67;100.00;-19920.00;5013010;28;20261;-59
2022/01/09 08:53:51;;;;;;;0.80;0.80;;;4.70;99.90;;;5.50;100.00;-19914.19;5013058;28;20313;-60
2022/01/09 08:56:20;;;;;;;1.30;1.20;;;4.60;99.90;;;5.48;100.00;-19913.34;5012618;28;20277;-59
2022/01/09 08:58:49;;;;;;;1.80;1.63;;;4.60;99.90;;;5.28;100.00;-19906.66;5013168;28;20218;-58
2022/01/09 09:01:37;;;;;;;1.10;0.90;;;4.50;99.90;;;5.54;100.00;-19915.38;5012453;28;20861;-61
2022/01/09 09:04:07;;;;;;;1.20;1.00;;;4.60;99.90;;;5.29;100.00;-19906.84;5013126;28;20662;-60
2022/01/09 09:06:35;;;;;;;0.63;0.63;;;4.50;99.90;;;5.36;100.00;-19909.41;5012701;28;20312;-60
2022/01/09 09:09:03;;;;;;;1.17;1.00;;;4.50;99.90;;;5.60;100.00;-19917.59;5012815;28;20669;-59
2022/01/09 09:11:31;;;;;;;1.57;0.90;;;4.60;99.90;;;5.66;100.00;-19919.47;5012410;28;20781;-60
2022/01/09 09:13:59;;;;;;;1.10;1.00;;;4.60;99.90;;;5.65;100.00;-19919.31;5012737;28;20311;-59
2022/01/09 09:16:27;;;;;;;1.07;1.00;;;4.60;99.90;;;5.68;100.00;-19920.16;5013042;28;20296;-59
2022/01/09 09:18:55;;;;;;;1.33;1.23;;;4.60;99.90;;;5.56;100.00;-19916.25;5012719;28;20220;-61
2022/01/09 09:21:25;;;;;;;1.10;1.00;;;4.70;99.90;;;5.58;100.00;-19916.75;5012428;28;20226;-61
2022/01/09 09:23:53;;;;;;;0.90;0.90;;;4.70;99.90;;;5.52;100.00;-19914.69;5012673;28;20317;-60
2022/01/09 09:26:22;;;;;;;1.00;0.80;;;4.70;99.90;;;5.80;100.00;-19924.28;5011863;28;20311;-60
2022/01/09 09:28:51;;;;;;;1.47;1.37;;;4.70;99.90;;;5.95;100.00;-19929.56;5012276;28;20268;-61
2022/01/09 09:31:19;;;;;;;1.10;1.00;;;4.70;99.90;;;5.75;100.00;-19922.56;5012778;28;20225;-60
2022/01/09 09:33:47;;;;;;;1.00;0.90;;;4.70;99.90;;;6.08;100.00;-19933.84;5011217;28;20227;-59
2022/01/09 09:36:15;;;;;;;0.70;0.70;;;4.90;99.90;;;6.08;100.00;-19933.84;5012373;28;20226;-59
2022/01/09 09:38:44;;;;;;;0.80;0.80;;;5.00;99.90;;;6.09;100.00;-19934.34;5012266;28;20313;-58
2022/01/09 09:41:12;;;;;;;1.73;1.37;;;5.00;99.90;;;5.99;100.00;-19930.75;5012215;28;20312;-59
2022/01/09 09:43:40;;;;;;;0.97;0.97;;;5.00;99.90;;;6.12;100.00;-19935.38;5012289;28;20635;-60
2022/01/09 09:46:09;;;;;;;1.10;1.00;;;5.00;99.90;;;6.27;100.00;-19940.34;5012607;28;20211;-59
2022/01/09 09:48:37;;;;;;;1.70;1.60;;;5.00;99.90;;;6.29;100.00;-19941.03;5011829;28;20309;-60
2022/01/09 09:51:05;;;;;;;1.20;1.10;;;5.10;99.90;;;6.26;100.00;-19940.00;5011945;28;20230;-60
2022/01/09 09:53:33;;;;;;;1.43;1.00;;;5.20;99.90;;;6.22;100.00;-19938.47;5012052;28;20250;-60
2022/01/09 09:56:02;;;;;;;0.90;0.90;;;5.10;99.90;;;6.07;100.00;-19933.50;5011616;28;20314;-60
2022/01/09 09:58:30;;;;;;;1.33;1.10;;;5.20;99.90;;;6.16;100.00;-19936.56;5011883;28;20209;-59
2022/01/09 10:00:59;;;;;;;1.37;0.90;;;5.20;99.90;;;6.16;100.00;-19936.56;5012076;28;20306;-59
2022/01/09 10:03:29;;;;;;;0.90;0.90;;;5.20;99.90;;;6.30;100.00;-19941.38;5000836;28;20250;-58
2022/01/09 10:05:57;;;;;;;1.90;1.70;;;5.20;99.90;;;6.29;100.00;-19941.03;5011780;28;20317;-59
2022/01/09 10:08:38;;;;;;;1.80;1.30;;;5.30;99.90;;;6.33;100.00;-19942.38;5011771;28;20309;-59
2022/01/09 10:11:16;;;;;;;1.10;1.00;;;5.30;99.90;;;6.61;100.00;-19951.78;5011639;28;20387;-60
2022/01/09 10:13:44;;;;;;;1.47;1.37;;;5.40;99.90;;;6.61;100.00;-19951.78;5011678;28;20686;-59
2022/01/09 10:16:13;;;;;;;1.40;1.27;;;5.50;99.90;;;6.77;100.00;-19957.44;5011919;28;20211;-60
2022/01/09 10:18:45;;;;;;;1.20;1.10;;;5.60;99.90;;;6.96;100.00;-19963.91;5011159;28;20354;-59
2022/01/09 10:21:15;;;;;;;1.20;1.10;;;5.60;99.90;;;6.83;100.00;-19959.31;5011686;28;20332;-59
2022/01/09 10:24:02;;;;;;;1.20;1.00;;;5.70;99.90;;;6.78;100.00;-19957.59;5011637;28;20300;-59
2022/01/09 10:26:34;;;;;;;1.37;1.27;;;5.70;99.90;;;6.51;100.00;-19948.53;5011100;28;20225;-59
2022/01/09 10:29:04;;;;;;;1.40;1.30;;;5.60;99.90;;;6.23;100.00;-19938.97;5010394;28;20310;-61